Geronimo — PD6553 — position and weather

sailwx.info

Track history (hours):
 
Tides and Currents Weather Stations Pressure Air Temp Water Temp Dewpoint Dewpoint Depression Visibility Wind Speed Wind Dir Waves Ship Positions

Geronimo

Last reported at 2017-Oct-17 14:09 UTC. Time now 2017-Oct-20 10:55 UTC.
Position N 39°47' E 002°39'.

Length 20 m; draft 2.9 m.

Type: Sailing vessel. MMSI: 244620501.

Date/timePositionNaut miles runAvg speedWind from/ knotsBaromVisibWave heightAir tempDewpointWater temp
2017-Oct-17 14:09N 39°47' E 002°39'1 7.9
2017-Oct-17 13:59N 39°46' E 002°37'72 7.7
2017-Oct-17 04:39N 38°55' E 001°33'1 7.1
2017-Oct-17 04:30N 38°54' E 001°32'3 7.0
2017-Oct-17 04:00N 38°51' E 001°29'  
2017-Oct-13 22:43N 38°20' W 000°29'6 0.9
2017-Oct-13 16:09N 38°21' W 000°21'1 7.5
2017-Oct-13 16:00N 38°22' W 000°20'3 6.0
2017-Oct-13 15:26N 38°23' W 000°16'3 6.3
2017-Oct-13 15:00N 38°24' W 000°13'3 6.4
2017-Oct-13 14:28N 38°25' W 000°09'78 2.9
2017-Oct-12 11:53N 38°50' E 001°26'2 5.3
2017-Oct-12 11:31N 38°52' E 001°27'3 5.9
2017-Oct-12 10:59N 38°54' E 001°30'3 5.5
2017-Oct-12 10:29N 38°56' E 001°33'1 3.0
2017-Oct-12 10:00N 38°57' E 001°33'2 3.7
2017-Oct-12 09:30N 38°58' E 001°35'61 1.8
2017-Oct-11 00:00N 39°34' E 002°38'0 0.0
2017-Oct-10 23:30N 39°34' E 002°38'0 0.0
2017-Oct-10 23:00N 39°34' E 002°38'0 0.0
2017-Oct-10 22:30N 39°34' E 002°38'0 0.0
2017-Oct-10 22:00N 39°34' E 002°38'0 0.0
2017-Oct-10 21:30N 39°34' E 002°38'0 0.0
2017-Oct-10 21:00N 39°34' E 002°38'0 0.0
2017-Oct-10 20:30N 39°34' E 002°38'0 0.0
2017-Oct-10 20:00N 39°34' E 002°38'0 0.0
2017-Oct-10 19:30N 39°34' E 002°38'0 0.0
2017-Oct-10 19:00N 39°34' E 002°38'0 0.0
2017-Oct-10 18:30N 39°34' E 002°38'0 0.0
2017-Oct-10 18:00N 39°34' E 002°38'0 0.0
2017-Oct-10 17:30N 39°34' E 002°38'0 0.0
2017-Oct-10 17:00N 39°34' E 002°38'0 0.0
2017-Oct-10 16:30N 39°34' E 002°38'0 0.0
2017-Oct-10 16:00N 39°34' E 002°38'0 0.0
2017-Oct-10 15:30N 39°34' E 002°38'0 0.0
2017-Oct-10 15:00N 39°34' E 002°38'0 0.0
2017-Oct-10 14:00N 39°34' E 002°38'0 0.0
2017-Oct-10 13:30N 39°34' E 002°38'0 0.0
2017-Oct-10 13:00N 39°34' E 002°38'0 0.0
2017-Oct-10 12:30N 39°34' E 002°38'0 0.0
2017-Oct-10 12:00N 39°34' E 002°38'0 0.0
2017-Oct-10 11:30N 39°34' E 002°38'0 0.0
2017-Oct-10 11:00N 39°34' E 002°38'0 0.0
2017-Oct-10 10:30N 39°34' E 002°38'0 0.0
2017-Oct-10 10:00N 39°34' E 002°38'0 0.0
2017-Oct-10 09:30N 39°34' E 002°38'0 0.0
2017-Oct-10 09:00N 39°34' E 002°38'0 0.0
2017-Oct-10 08:30N 39°34' E 002°38'0 0.0
2017-Oct-10 08:00N 39°34' E 002°38'0 0.0
2017-Oct-10 07:30N 39°34' E 002°38'0 0.0
2017-Oct-10 07:00N 39°34' E 002°38'0 0.0
2017-Oct-10 06:30N 39°34' E 002°38'0 0.0
2017-Oct-10 06:00N 39°34' E 002°38'0 0.0
2017-Oct-10 05:30N 39°34' E 002°38'0 0.0
2017-Oct-10 05:00N 39°34' E 002°38'0 0.0
2017-Oct-10 04:30N 39°34' E 002°38'0 0.0
2017-Oct-10 04:00N 39°34' E 002°38'0 0.0
2017-Oct-10 03:30N 39°34' E 002°38'0 0.0
2017-Oct-10 03:00N 39°34' E 002°38'0 0.0
2017-Oct-10 02:30N 39°34' E 002°38'0 0.0
2017-Oct-10 02:00N 39°34' E 002°38'0 0.0
2017-Oct-10 01:30N 39°34' E 002°38'0 0.0
2017-Oct-10 01:00N 39°34' E 002°38'0 0.0
2017-Oct-10 00:30N 39°34' E 002°38'0 0.0
2017-Oct-10 00:00N 39°34' E 002°38'0 0.0
2017-Oct-09 23:30N 39°34' E 002°38'0 0.0
2017-Oct-09 23:00N 39°34' E 002°38'0 0.0
2017-Oct-09 22:30N 39°34' E 002°38'0 0.0
2017-Oct-09 22:00N 39°34' E 002°38'0 0.0
2017-Oct-09 21:30N 39°34' E 002°38'0 0.0
2017-Oct-09 21:00N 39°34' E 002°38'0 0.0
2017-Oct-09 20:30N 39°34' E 002°38'0 0.0
2017-Oct-09 20:00N 39°34' E 002°38'0 0.0
2017-Oct-09 19:30N 39°34' E 002°38'0 0.0
2017-Oct-09 19:00N 39°34' E 002°38'0 0.0
2017-Oct-09 18:30N 39°34' E 002°38'0 0.0
2017-Oct-09 18:00N 39°34' E 002°38'0 0.0
2017-Oct-09 17:30N 39°34' E 002°38'0 0.0
2017-Oct-09 17:00N 39°34' E 002°38'0 0.0
2017-Oct-09 16:30N 39°34' E 002°38'0 0.0
2017-Oct-09 16:00N 39°34' E 002°38'0 0.0
2017-Oct-09 15:30N 39°34' E 002°38'0 0.0
2017-Oct-09 15:00N 39°34' E 002°38'0 0.0
2017-Oct-09 14:30N 39°34' E 002°38'0 0.0
2017-Oct-09 14:00N 39°34' E 002°38'0 0.0
2017-Oct-09 13:30N 39°34' E 002°38'0 0.0
2017-Oct-09 13:00N 39°34' E 002°38'0 0.0
2017-Oct-09 12:30N 39°34' E 002°38'0 0.0
2017-Oct-09 12:00N 39°34' E 002°38'0 0.0
2017-Oct-09 11:30N 39°34' E 002°38'0 0.0
2017-Oct-09 11:00N 39°34' E 002°38'0 0.0
2017-Oct-09 10:30N 39°34' E 002°38'0 0.0
2017-Oct-09 10:00N 39°34' E 002°38'0 0.0
2017-Oct-09 09:30N 39°34' E 002°38'0 0.0
2017-Oct-09 09:00N 39°34' E 002°38'0 0.0
2017-Oct-09 08:30N 39°34' E 002°38'0 0.0
2017-Oct-09 08:00N 39°34' E 002°38'0 0.0
2017-Oct-09 07:30N 39°34' E 002°38'0 0.0
2017-Oct-09 07:00N 39°34' E 002°38'0 0.0
2017-Oct-09 06:30N 39°34' E 002°38'0 0.0
2017-Oct-09 06:00N 39°34' E 002°38'0 0.0
2017-Oct-09 05:30N 39°34' E 002°38'0 0.0
2017-Oct-09 05:00N 39°34' E 002°38'0 0.0
2017-Oct-09 04:30N 39°34' E 002°38'0 0.0
2017-Oct-09 04:00N 39°34' E 002°38'0 0.0
2017-Oct-09 03:30N 39°34' E 002°38'0 0.0
2017-Oct-09 03:00N 39°34' E 002°38'0 0.0
2017-Oct-09 02:30N 39°34' E 002°38'0 0.0
2017-Oct-09 02:00N 39°34' E 002°38'0 0.0
2017-Oct-09 01:30N 39°34' E 002°38'0 0.0
2017-Oct-09 01:00N 39°34' E 002°38'0 0.0
2017-Oct-09 00:30N 39°34' E 002°38'0 0.0
2017-Oct-09 00:00N 39°34' E 002°38'0 0.0
2017-Oct-08 23:30N 39°34' E 002°38'0 0.0
2017-Oct-08 23:00N 39°34' E 002°38'0 0.0
2017-Oct-08 22:30N 39°34' E 002°38'0 0.0
2017-Oct-08 22:00N 39°34' E 002°38'0 0.0
2017-Oct-08 21:30N 39°34' E 002°38'0 0.0
2017-Oct-08 21:00N 39°34' E 002°38'0 0.0
2017-Oct-08 20:30N 39°34' E 002°38'0 0.0
2017-Oct-08 20:00N 39°34' E 002°38'0 0.0
2017-Oct-08 19:30N 39°34' E 002°38'0 0.0
2017-Oct-08 19:00N 39°34' E 002°38'0 0.0
2017-Oct-08 18:30N 39°34' E 002°38'0 0.0
2017-Oct-08 18:00N 39°34' E 002°38'0 0.0
2017-Oct-08 17:30N 39°34' E 002°38'0 0.0
2017-Oct-08 17:00N 39°34' E 002°38'0 0.0
2017-Oct-08 16:30N 39°34' E 002°38'0 0.0
2017-Oct-08 16:00N 39°34' E 002°38'0 0.0
2017-Oct-08 15:30N 39°34' E 002°38'0 0.0
2017-Oct-08 15:00N 39°34' E 002°38'0 0.0
2017-Oct-08 14:30N 39°34' E 002°38'0 0.0
2017-Oct-08 14:00N 39°34' E 002°38'0 0.0
2017-Oct-08 13:30N 39°34' E 002°38'0 0.0
2017-Oct-08 13:00N 39°34' E 002°38'0 0.0
2017-Oct-08 12:30N 39°34' E 002°38'0 0.0
2017-Oct-08 12:00N 39°34' E 002°38'0 0.0
2017-Oct-08 11:30N 39°34' E 002°38'0 0.0
2017-Oct-08 11:00N 39°34' E 002°38'0 0.0
2017-Oct-08 10:30N 39°34' E 002°38'0 0.0
2017-Oct-08 10:00N 39°34' E 002°38'0 0.0
2017-Oct-08 09:30N 39°34' E 002°38'0 0.0
2017-Oct-08 09:00N 39°34' E 002°38'0 0.0
2017-Oct-08 08:30N 39°34' E 002°38'0 0.0
2017-Oct-08 08:00N 39°34' E 002°38'0 0.0
2017-Oct-08 07:30N 39°34' E 002°38'0 0.0
2017-Oct-08 07:00N 39°34' E 002°38'0 0.0
2017-Oct-08 06:30N 39°34' E 002°38'0 0.0
2017-Oct-08 06:00N 39°34' E 002°38'0 0.0
2017-Oct-08 05:30N 39°34' E 002°38'0 0.0
2017-Oct-08 05:00N 39°34' E 002°38'0 0.0
2017-Oct-08 04:30N 39°34' E 002°38'0 0.0
2017-Oct-08 04:00N 39°34' E 002°38'0 0.0
2017-Oct-08 03:30N 39°34' E 002°38'0 0.0
2017-Oct-08 03:00N 39°34' E 002°38'0 0.0
2017-Oct-08 02:30N 39°34' E 002°38'0 0.0
2017-Oct-08 02:00N 39°34' E 002°38'0 0.0
2017-Oct-08 01:30N 39°34' E 002°38'0 0.0
2017-Oct-08 01:00N 39°34' E 002°38'0 0.0
2017-Oct-08 00:30N 39°34' E 002°38'0 0.0
2017-Oct-08 00:00N 39°34' E 002°38'0 0.0
2017-Oct-07 23:30N 39°34' E 002°38'0 0.0
2017-Oct-07 23:00N 39°34' E 002°38'0 0.0
2017-Oct-07 22:30N 39°34' E 002°38'0 0.0
2017-Oct-07 22:00N 39°34' E 002°38'0 0.0
2017-Oct-07 21:30N 39°34' E 002°38'0 0.0
2017-Oct-07 21:00N 39°34' E 002°38'0 0.0
2017-Oct-07 20:30N 39°34' E 002°38'0 0.0
2017-Oct-07 20:00N 39°34' E 002°38'0 0.0
2017-Oct-07 19:30N 39°34' E 002°38'0 0.0
2017-Oct-07 19:00N 39°34' E 002°38'0 0.0
2017-Oct-07 18:30N 39°34' E 002°38'0 0.0
2017-Oct-07 18:00N 39°34' E 002°38'0 0.0
2017-Oct-07 17:30N 39°34' E 002°38'0 0.0
2017-Oct-07 17:00N 39°34' E 002°38'0 0.0
2017-Oct-07 16:30N 39°34' E 002°38'0 0.0
2017-Oct-07 16:00N 39°34' E 002°38'0 0.0
2017-Oct-07 15:30N 39°34' E 002°38'0 0.0
2017-Oct-07 15:00N 39°34' E 002°38'0 0.0
2017-Oct-07 14:30N 39°34' E 002°38'  
Track history (hours):
 
Tides and Currents Weather Stations Pressure Air Temp Water Temp Dewpoint Dewpoint Depression Visibility Wind Speed Wind Dir Waves Ship Positions

Geronimo

Last reported at 2017-Oct-17 14:09 UTC. Time now 2017-Oct-20 10:55 UTC.
Position N 39°47' E 002°39'.

Length 20 m; draft 2.9 m.

Type: Sailing vessel. MMSI: 244620501.

Date/timePositionNaut miles runAvg speedWind from/ knotsBaromVisibWave heightAir tempDewpointWater temp
2017-Oct-17 14:09N 39°47' E 002°39'1 7.9
2017-Oct-17 13:59N 39°46' E 002°37'72 7.7
2017-Oct-17 04:39N 38°55' E 001°33'1 7.1
2017-Oct-17 04:30N 38°54' E 001°32'3 7.0
2017-Oct-17 04:00N 38°51' E 001°29'  
2017-Oct-13 22:43N 38°20' W 000°29'6 0.9
2017-Oct-13 16:09N 38°21' W 000°21'1 7.5
2017-Oct-13 16:00N 38°22' W 000°20'3 6.0
2017-Oct-13 15:26N 38°23' W 000°16'3 6.3
2017-Oct-13 15:00N 38°24' W 000°13'3 6.4
2017-Oct-13 14:28N 38°25' W 000°09'78 2.9
2017-Oct-12 11:53N 38°50' E 001°26'2 5.3
2017-Oct-12 11:31N 38°52' E 001°27'3 5.9
2017-Oct-12 10:59N 38°54' E 001°30'3 5.5
2017-Oct-12 10:29N 38°56' E 001°33'1 3.0
2017-Oct-12 10:00N 38°57' E 001°33'2 3.7
2017-Oct-12 09:30N 38°58' E 001°35'61 1.8
2017-Oct-11 00:00N 39°34' E 002°38'0 0.0
2017-Oct-10 23:30N 39°34' E 002°38'0 0.0
2017-Oct-10 23:00N 39°34' E 002°38'0 0.0
2017-Oct-10 22:30N 39°34' E 002°38'0 0.0
2017-Oct-10 22:00N 39°34' E 002°38'0 0.0
2017-Oct-10 21:30N 39°34' E 002°38'0 0.0
2017-Oct-10 21:00N 39°34' E 002°38'0 0.0
2017-Oct-10 20:30N 39°34' E 002°38'0 0.0
2017-Oct-10 20:00N 39°34' E 002°38'0 0.0
2017-Oct-10 19:30N 39°34' E 002°38'0 0.0
2017-Oct-10 19:00N 39°34' E 002°38'0 0.0
2017-Oct-10 18:30N 39°34' E 002°38'0 0.0
2017-Oct-10 18:00N 39°34' E 002°38'0 0.0
2017-Oct-10 17:30N 39°34' E 002°38'0 0.0
2017-Oct-10 17:00N 39°34' E 002°38'0 0.0
2017-Oct-10 16:30N 39°34' E 002°38'0 0.0
2017-Oct-10 16:00N 39°34' E 002°38'0 0.0
2017-Oct-10 15:30N 39°34' E 002°38'0 0.0
2017-Oct-10 15:00N 39°34' E 002°38'0 0.0
2017-Oct-10 14:00N 39°34' E 002°38'0 0.0
2017-Oct-10 13:30N 39°34' E 002°38'0 0.0
2017-Oct-10 13:00N 39°34' E 002°38'0 0.0
2017-Oct-10 12:30N 39°34' E 002°38'0 0.0
2017-Oct-10 12:00N 39°34' E 002°38'0 0.0
2017-Oct-10 11:30N 39°34' E 002°38'0 0.0
2017-Oct-10 11:00N 39°34' E 002°38'0 0.0
2017-Oct-10 10:30N 39°34' E 002°38'0 0.0
2017-Oct-10 10:00N 39°34' E 002°38'0 0.0
2017-Oct-10 09:30N 39°34' E 002°38'0 0.0
2017-Oct-10 09:00N 39°34' E 002°38'0 0.0
2017-Oct-10 08:30N 39°34' E 002°38'0 0.0
2017-Oct-10 08:00N 39°34' E 002°38'0 0.0
2017-Oct-10 07:30N 39°34' E 002°38'0 0.0
2017-Oct-10 07:00N 39°34' E 002°38'0 0.0
2017-Oct-10 06:30N 39°34' E 002°38'0 0.0
2017-Oct-10 06:00N 39°34' E 002°38'0 0.0
2017-Oct-10 05:30N 39°34' E 002°38'0 0.0
2017-Oct-10 05:00N 39°34' E 002°38'0 0.0
2017-Oct-10 04:30N 39°34' E 002°38'0 0.0
2017-Oct-10 04:00N 39°34' E 002°38'0 0.0
2017-Oct-10 03:30N 39°34' E 002°38'0 0.0
2017-Oct-10 03:00N 39°34' E 002°38'0 0.0
2017-Oct-10 02:30N 39°34' E 002°38'0 0.0
2017-Oct-10 02:00N 39°34' E 002°38'0 0.0
2017-Oct-10 01:30N 39°34' E 002°38'0 0.0
2017-Oct-10 01:00N 39°34' E 002°38'0 0.0
2017-Oct-10 00:30N 39°34' E 002°38'0 0.0
2017-Oct-10 00:00N 39°34' E 002°38'0 0.0
2017-Oct-09 23:30N 39°34' E 002°38'0 0.0
2017-Oct-09 23:00N 39°34' E 002°38'0 0.0
2017-Oct-09 22:30N 39°34' E 002°38'0 0.0
2017-Oct-09 22:00N 39°34' E 002°38'0 0.0
2017-Oct-09 21:30N 39°34' E 002°38'0 0.0
2017-Oct-09 21:00N 39°34' E 002°38'0 0.0
2017-Oct-09 20:30N 39°34' E 002°38'0 0.0
2017-Oct-09 20:00N 39°34' E 002°38'0 0.0
2017-Oct-09 19:30N 39°34' E 002°38'0 0.0
2017-Oct-09 19:00N 39°34' E 002°38'0 0.0
2017-Oct-09 18:30N 39°34' E 002°38'0 0.0
2017-Oct-09 18:00N 39°34' E 002°38'0 0.0
2017-Oct-09 17:30N 39°34' E 002°38'0 0.0
2017-Oct-09 17:00N 39°34' E 002°38'0 0.0
2017-Oct-09 16:30N 39°34' E 002°38'0 0.0
2017-Oct-09 16:00N 39°34' E 002°38'0 0.0
2017-Oct-09 15:30N 39°34' E 002°38'0 0.0
2017-Oct-09 15:00N 39°34' E 002°38'0 0.0
2017-Oct-09 14:30N 39°34' E 002°38'0 0.0
2017-Oct-09 14:00N 39°34' E 002°38'0 0.0
2017-Oct-09 13:30N 39°34' E 002°38'0 0.0
2017-Oct-09 13:00N 39°34' E 002°38'0 0.0
2017-Oct-09 12:30N 39°34' E 002°38'0 0.0
2017-Oct-09 12:00N 39°34' E 002°38'0 0.0
2017-Oct-09 11:30N 39°34' E 002°38'0 0.0
2017-Oct-09 11:00N 39°34' E 002°38'0 0.0
2017-Oct-09 10:30N 39°34' E 002°38'0 0.0
2017-Oct-09 10:00N 39°34' E 002°38'0 0.0
2017-Oct-09 09:30N 39°34' E 002°38'0 0.0
2017-Oct-09 09:00N 39°34' E 002°38'0 0.0
2017-Oct-09 08:30N 39°34' E 002°38'0 0.0
2017-Oct-09 08:00N 39°34' E 002°38'0 0.0
2017-Oct-09 07:30N 39°34' E 002°38'0 0.0
2017-Oct-09 07:00N 39°34' E 002°38'0 0.0
2017-Oct-09 06:30N 39°34' E 002°38'0 0.0
2017-Oct-09 06:00N 39°34' E 002°38'0 0.0
2017-Oct-09 05:30N 39°34' E 002°38'0 0.0
2017-Oct-09 05:00N 39°34' E 002°38'0 0.0
2017-Oct-09 04:30N 39°34' E 002°38'0 0.0
2017-Oct-09 04:00N 39°34' E 002°38'0 0.0
2017-Oct-09 03:30N 39°34' E 002°38'0 0.0
2017-Oct-09 03:00N 39°34' E 002°38'0 0.0
2017-Oct-09 02:30N 39°34' E 002°38'0 0.0
2017-Oct-09 02:00N 39°34' E 002°38'0 0.0
2017-Oct-09 01:30N 39°34' E 002°38'0 0.0
2017-Oct-09 01:00N 39°34' E 002°38'0 0.0
2017-Oct-09 00:30N 39°34' E 002°38'0 0.0
2017-Oct-09 00:00N 39°34' E 002°38'0 0.0
2017-Oct-08 23:30N 39°34' E 002°38'0 0.0
2017-Oct-08 23:00N 39°34' E 002°38'0 0.0
2017-Oct-08 22:30N 39°34' E 002°38'0 0.0
2017-Oct-08 22:00N 39°34' E 002°38'0 0.0
2017-Oct-08 21:30N 39°34' E 002°38'0 0.0
2017-Oct-08 21:00N 39°34' E 002°38'0 0.0
2017-Oct-08 20:30N 39°34' E 002°38'0 0.0
2017-Oct-08 20:00N 39°34' E 002°38'0 0.0
2017-Oct-08 19:30N 39°34' E 002°38'0 0.0
2017-Oct-08 19:00N 39°34' E 002°38'0 0.0
2017-Oct-08 18:30N 39°34' E 002°38'0 0.0
2017-Oct-08 18:00N 39°34' E 002°38'0 0.0
2017-Oct-08 17:30N 39°34' E 002°38'0 0.0
2017-Oct-08 17:00N 39°34' E 002°38'0 0.0
2017-Oct-08 16:30N 39°34' E 002°38'0 0.0
2017-Oct-08 16:00N 39°34' E 002°38'0 0.0
2017-Oct-08 15:30N 39°34' E 002°38'0 0.0
2017-Oct-08 15:00N 39°34' E 002°38'0 0.0
2017-Oct-08 14:30N 39°34' E 002°38'0 0.0
2017-Oct-08 14:00N 39°34' E 002°38'0 0.0
2017-Oct-08 13:30N 39°34' E 002°38'0 0.0
2017-Oct-08 13:00N 39°34' E 002°38'0 0.0
2017-Oct-08 12:30N 39°34' E 002°38'0 0.0
2017-Oct-08 12:00N 39°34' E 002°38'0 0.0
2017-Oct-08 11:30N 39°34' E 002°38'0 0.0
2017-Oct-08 11:00N 39°34' E 002°38'0 0.0
2017-Oct-08 10:30N 39°34' E 002°38'0 0.0
2017-Oct-08 10:00N 39°34' E 002°38'0 0.0
2017-Oct-08 09:30N 39°34' E 002°38'0 0.0
2017-Oct-08 09:00N 39°34' E 002°38'0 0.0
2017-Oct-08 08:30N 39°34' E 002°38'0 0.0
2017-Oct-08 08:00N 39°34' E 002°38'0 0.0
2017-Oct-08 07:30N 39°34' E 002°38'0 0.0
2017-Oct-08 07:00N 39°34' E 002°38'0 0.0
2017-Oct-08 06:30N 39°34' E 002°38'0 0.0
2017-Oct-08 06:00N 39°34' E 002°38'0 0.0
2017-Oct-08 05:30N 39°34' E 002°38'0 0.0
2017-Oct-08 05:00N 39°34' E 002°38'0 0.0
2017-Oct-08 04:30N 39°34' E 002°38'0 0.0
2017-Oct-08 04:00N 39°34' E 002°38'0 0.0
2017-Oct-08 03:30N 39°34' E 002°38'0 0.0
2017-Oct-08 03:00N 39°34' E 002°38'0 0.0
2017-Oct-08 02:30N 39°34' E 002°38'0 0.0
2017-Oct-08 02:00N 39°34' E 002°38'0 0.0
2017-Oct-08 01:30N 39°34' E 002°38'0 0.0
2017-Oct-08 01:00N 39°34' E 002°38'0 0.0
2017-Oct-08 00:30N 39°34' E 002°38'0 0.0
2017-Oct-08 00:00N 39°34' E 002°38'0 0.0
2017-Oct-07 23:30N 39°34' E 002°38'0 0.0
2017-Oct-07 23:00N 39°34' E 002°38'0 0.0
2017-Oct-07 22:30N 39°34' E 002°38'0 0.0
2017-Oct-07 22:00N 39°34' E 002°38'0 0.0
2017-Oct-07 21:30N 39°34' E 002°38'0 0.0
2017-Oct-07 21:00N 39°34' E 002°38'0 0.0
2017-Oct-07 20:30N 39°34' E 002°38'0 0.0
2017-Oct-07 20:00N 39°34' E 002°38'0 0.0
2017-Oct-07 19:30N 39°34' E 002°38'0 0.0
2017-Oct-07 19:00N 39°34' E 002°38'0 0.0
2017-Oct-07 18:30N 39°34' E 002°38'0 0.0
2017-Oct-07 18:00N 39°34' E 002°38'0 0.0
2017-Oct-07 17:30N 39°34' E 002°38'0 0.0
2017-Oct-07 17:00N 39°34' E 002°38'0 0.0
2017-Oct-07 16:30N 39°34' E 002°38'0 0.0
2017-Oct-07 16:00N 39°34' E 002°38'0 0.0
2017-Oct-07 15:30N 39°34' E 002°38'0 0.0
2017-Oct-07 15:00N 39°34' E 002°38'0 0.0
2017-Oct-07 14:30N 39°34' E 002°38'  

Dump ship's entire track history